Time,TemperatureF,DewpointF,PressureIn,WindDirection,WindDirectionDegrees,WindSpeedMPH,WindSpeedGustMPH,Humidity,HourlyPrecipIn,Conditions,Clouds,dailyrainin,SoftwareType,DateUTC
2013-03-13 00:00:00,37.8,32.5,29.75,WNW,293,3.4,5.6,81,0.00,,,0.00,WUHU216HW,2013-03-13 04:00:00,
2013-03-13 00:01:00,37.8,32.5,29.75,WNW,293,2.0,5.6,81,0.00,,,0.00,WUHU216HW,2013-03-13 04:01:00,
2013-03-13 00:03:00,37.8,32.5,29.76,NW,315,3.4,5.6,81,0.00,,,0.00,WUHU216HW,2013-03-13 04:03:00,
2013-03-13 00:08:00,37.6,32.3,29.75,WNW,293,4.3,6.5,81,0.00,,,0.00,WUHU216HW,2013-03-13 04:08:00,
2013-03-13 00:13:00,37.6,32.3,29.76,West,270,3.4,6.5,81,0.00,,,0.00,WUHU216HW,2013-03-13 04:13:00,
2013-03-13 00:18:00,37.4,32.1,29.76,SSW,203,3.4,7.6,81,0.00,,,0.00,WUHU216HW,2013-03-13 04:18:00,
2013-03-13 00:23:00,37.4,32.1,29.76,West,270,3.4,7.6,81,0.00,,,0.00,WUHU216HW,2013-03-13 04:23:00,
2013-03-13 00:28:00,37.2,31.9,29.76,West,270,2.2,5.4,81,0.00,,,0.00,WUHU216HW,2013-03-13 04:28:00,
2013-03-13 00:33:00,37.1,31.8,29.76,NW,315,2.2,6.3,81,0.00,,,0.00,WUHU216HW,2013-03-13 04:33:00,
2013-03-13 00:38:00,36.9,31.3,29.76,WNW,293,2.5,6.3,80,0.00,,,0.00,WUHU216HW,2013-03-13 04:38:00,
2013-03-13 00:44:00,36.9,31.3,29.76,West,270,5.8,6.3,80,0.00,,,0.00,WUHU216HW,2013-03-13 04:44:00,
2013-03-13 00:49:00,36.5,30.9,29.76,WNW,293,3.4,6.0,80,0.00,,,0.00,WUHU216HW,2013-03-13 04:49:00,
2013-03-13 00:54:00,36.5,30.9,29.75,West,270,2.9,6.0,80,0.00,,,0.00,WUHU216HW,2013-03-13 04:54:00,
2013-03-13 00:59:00,36.3,30.7,29.76,West,270,4.0,5.6,80,0.00,,,0.00,WUHU216HW,2013-03-13 04:59:00,
2013-03-13 01:04:00,36.2,30.9,29.76,NW,315,0.7,5.1,81,0.00,,,0.00,WUHU216HW,2013-03-13 05:04:00,
2013-03-13 01:09:00,36.2,30.9,29.76,West,270,1.8,6.9,81,0.00,,,0.00,WUHU216HW,2013-03-13 05:09:00,
2013-03-13 01:14:00,36.2,30.9,29.76,WNW,293,0.7,6.9,81,0.00,,,0.00,WUHU216HW,2013-03-13 05:14:00,
2013-03-13 01:19:00,36.2,30.9,29.76,West,270,2.5,3.1,81,0.00,,,0.00,WUHU216HW,2013-03-13 05:19:00,
2013-03-13 01:24:00,36.0,30.7,29.76,WNW,293,3.1,4.3,81,0.00,,,0.00,WUHU216HW,2013-03-13 05:24:00,
2013-03-13 01:29:00,36.0,30.7,29.76,WNW,293,2.0,4.7,81,0.00,,,0.00,WUHU216HW,2013-03-13 05:29:00,
2013-03-13 01:34:00,36.0,30.7,29.76,West,270,1.8,4.7,81,0.00,,,0.00,WUHU216HW,2013-03-13 05:34:00,
2013-03-13 01:39:00,36.0,30.7,29.76,NW,315,2.0,4.5,81,0.00,,,0.00,WUHU216HW,2013-03-13 05:39:00,
2013-03-13 01:44:00,36.0,30.7,29.76,NW,315,1.1,4.5,81,0.00,,,0.00,WUHU216HW,2013-03-13 05:44:00,
2013-03-13 01:49:00,36.0,31.0,29.76,WNW,293,3.4,4.7,82,0.00,,,0.00,WUHU216HW,2013-03-13 05:49:00,
2013-03-13 01:54:00,36.0,30.7,29.76,WNW,293,4.7,4.7,81,0.00,,,0.00,WUHU216HW,2013-03-13 05:54:00,
2013-03-13 01:59:00,36.0,31.0,29.76,West,270,0.9,4.7,82,0.00,,,0.00,WUHU216HW,2013-03-13 05:59:00,
2013-03-13 02:04:00,36.0,31.0,29.76,WNW,293,2.0,4.0,82,0.00,,,0.00,WUHU216HW,2013-03-13 06:04:00,
2013-03-13 02:10:00,36.2,30.9,29.76,West,270,3.4,4.0,81,0.00,,,0.00,WUHU216HW,2013-03-13 06:10:00,
2013-03-13 02:15:00,36.0,30.7,29.76,West,270,2.2,4.0,81,0.00,,,0.00,WUHU216HW,2013-03-13 06:15:00,
2013-03-13 02:20:00,36.0,30.7,29.76,NW,315,2.7,4.7,81,0.00,,,0.00,WUHU216HW,2013-03-13 06:20:00,
2013-03-13 02:25:00,36.0,30.7,29.75,West,270,1.8,5.1,81,0.00,,,0.00,WUHU216HW,2013-03-13 06:25:00,
2013-03-13 02:30:00,36.0,30.7,29.76,NW,315,4.7,5.1,81,0.00,,,0.00,WUHU216HW,2013-03-13 06:30:00,
2013-03-13 02:35:00,36.0,30.7,29.76,NNW,338,3.1,4.7,81,0.00,,,0.00,WUHU216HW,2013-03-13 06:35:00,
2013-03-13 02:40:00,36.0,30.7,29.76,WNW,293,4.5,4.5,81,0.00,,,0.00,WUHU216HW,2013-03-13 06:40:00,
2013-03-13 02:45:00,36.0,30.7,29.76,NW,315,2.5,5.4,81,0.00,,,0.00,WUHU216HW,2013-03-13 06:45:00,
2013-03-13 02:50:00,36.0,30.7,29.76,WNW,293,2.7,5.6,81,0.00,,,0.00,WUHU216HW,2013-03-13 06:50:00,
2013-03-13 02:55:00,36.0,30.7,29.76,West,270,2.5,5.6,81,0.00,,,0.00,WUHU216HW,2013-03-13 06:55:00,
2013-03-13 03:00:00,35.8,30.5,29.76,NNW,338,1.8,5.6,81,0.00,,,0.00,WUHU216HW,2013-03-13 07:00:00,
2013-03-13 03:05:00,36.0,30.7,29.75,West,270,3.1,4.5,81,0.00,,,0.00,WUHU216HW,2013-03-13 07:05:00,
2013-03-13 03:10:00,36.0,30.7,29.75,WNW,293,2.5,4.5,81,0.00,,,0.00,WUHU216HW,2013-03-13 07:10:00,
2013-03-13 03:15:00,35.8,30.5,29.75,WNW,293,3.8,4.3,81,0.00,,,0.00,WUHU216HW,2013-03-13 07:15:00,
2013-03-13 03:20:00,35.8,30.2,29.75,NW,315,3.4,4.7,80,0.00,,,0.00,WUHU216HW,2013-03-13 07:20:00,
2013-03-13 03:26:00,35.8,30.5,29.75,WNW,293,3.1,4.7,81,0.00,,,0.00,WUHU216HW,2013-03-13 07:26:00,
2013-03-13 07:40:00,31.5,26.3,29.77,SE,135,0.0,0.0,81,0.00,,,0.00,WUHU216HW,2013-03-13 11:40:00,
2013-03-13 07:45:00,31.3,26.1,29.77,SE,135,0.7,0.7,81,0.00,,,0.00,WUHU216HW,2013-03-13 11:45:00,
2013-03-13 07:50:00,31.3,26.1,29.77,SE,135,0.0,0.9,81,0.00,,,0.00,WUHU216HW,2013-03-13 11:50:00,
2013-03-13 07:55:00,31.1,26.0,29.77,SE,135,0.0,0.9,81,0.00,,,0.00,WUHU216HW,2013-03-13 11:55:00,
2013-03-13 08:00:00,31.1,26.0,29.77,SE,135,0.0,0.2,81,0.00,,,0.00,WUHU216HW,2013-03-13 12:00:00,
2013-03-13 08:05:00,31.1,26.0,29.78,SE,135,0.0,0.0,81,0.00,,,0.00,WUHU216HW,2013-03-13 12:05:00,
2013-03-13 08:10:00,31.3,26.4,29.78,SE,135,0.0,0.0,82,0.00,,,0.00,WUHU216HW,2013-03-13 12:10:00,
2013-03-13 08:15:00,31.5,26.6,29.78,WSW,248,0.0,0.0,82,0.00,,,0.00,WUHU216HW,2013-03-13 12:15:00,
2013-03-13 08:20:00,31.5,26.6,29.78,WSW,248,0.2,0.2,82,0.00,,,0.00,WUHU216HW,2013-03-13 12:20:00,
2013-03-13 08:25:00,31.7,26.8,29.78,WSW,248,0.0,0.7,82,0.00,,,0.00,WUHU216HW,2013-03-13 12:25:00,
2013-03-13 08:30:00,31.7,26.8,29.78,SW,225,0.2,0.9,82,0.00,,,0.00,WUHU216HW,2013-03-13 12:30:00,
2013-03-13 08:35:00,31.8,26.9,29.78,WSW,248,0.0,0.9,82,0.00,,,0.00,WUHU216HW,2013-03-13 12:35:00,
2013-03-13 08:40:00,32.2,27.6,29.78,WNW,293,0.4,2.5,83,0.00,,,0.00,WUHU216HW,2013-03-13 12:40:00,
2013-03-13 08:46:00,32.4,27.8,29.78,West,270,1.8,3.4,83,0.00,,,0.00,WUHU216HW,2013-03-13 12:46:00,
2013-03-13 08:51:00,32.7,28.1,29.77,WNW,293,1.1,3.4,83,0.00,,,0.00,WUHU216HW,2013-03-13 12:51:00,
2013-03-13 08:56:00,33.1,28.5,29.77,WSW,248,1.1,4.7,83,0.00,,,0.00,WUHU216HW,2013-03-13 12:56:00,
2013-03-13 09:01:00,33.3,28.7,29.77,WSW,248,1.1,4.7,83,0.00,,,0.00,WUHU216HW,2013-03-13 13:01:00,
2013-03-13 09:06:00,33.5,28.6,29.77,WNW,293,3.1,6.3,82,0.00,,,0.00,WUHU216HW,2013-03-13 13:06:00,
2013-03-13 09:11:00,33.6,28.4,29.77,NW,315,4.7,6.3,81,0.00,,,0.00,WUHU216HW,2013-03-13 13:11:00,
2013-03-13 09:16:00,33.6,28.1,29.77,West,270,1.1,6.3,80,0.00,,,0.00,WUHU216HW,2013-03-13 13:16:00,
2013-03-13 09:21:00,33.8,28.3,29.77,NW,315,2.5,7.6,80,0.00,,,0.00,WUHU216HW,2013-03-13 13:21:00,
2013-03-13 09:27:00,34.0,28.2,29.77,NNW,338,4.0,7.6,79,0.00,,,0.00,WUHU216HW,2013-03-13 13:27:00,
2013-03-13 09:32:00,34.2,28.1,29.78,West,270,2.9,6.3,78,0.00,,,0.00,WUHU216HW,2013-03-13 13:32:00,
2013-03-13 09:37:00,34.4,28.0,29.77,WSW,248,2.0,7.2,77,0.00,,,0.00,WUHU216HW,2013-03-13 13:37:00,
2013-03-13 09:42:00,34.4,27.7,29.77,WSW,248,4.5,8.3,76,0.00,,,0.00,WUHU216HW,2013-03-13 13:42:00,
2013-03-13 09:47:00,34.5,27.8,29.77,WSW,248,5.1,8.3,76,0.00,,,0.00,WUHU216HW,2013-03-13 13:47:00,
2013-03-13 09:52:00,34.7,27.9,29.77,WSW,248,6.7,6.7,76,0.00,,,0.00,WUHU216HW,2013-03-13 13:52:00,
2013-03-13 09:57:00,35.1,28.3,29.77,West,270,1.8,6.7,76,0.00,,,0.00,WUHU216HW,2013-03-13 13:57:00,
2013-03-13 10:02:00,35.1,28.0,29.77,WNW,293,4.7,6.3,75,0.00,,,0.00,WUHU216HW,2013-03-13 14:02:00,
2013-03-13 10:07:00,35.3,28.2,29.77,WNW,293,1.8,6.3,75,0.00,,,0.00,WUHU216HW,2013-03-13 14:07:00,
2013-03-13 10:12:00,35.4,28.0,29.77,WNW,293,4.7,6.9,74,0.00,,,0.00,WUHU216HW,2013-03-13 14:12:00,
2013-03-13 10:17:00,35.4,28.0,29.76,NW,315,0.4,6.9,74,0.00,,,0.00,WUHU216HW,2013-03-13 14:17:00,
2013-03-13 10:22:00,35.6,28.2,29.76,WSW,248,4.5,6.5,74,0.00,,,0.00,WUHU216HW,2013-03-13 14:22:00,
2013-03-13 10:28:00,35.8,28.0,29.76,WNW,293,2.7,6.5,73,0.00,,,0.00,WUHU216HW,2013-03-13 14:28:00,
2013-03-13 10:33:00,35.8,28.0,29.76,NW,315,0.9,4.5,73,0.00,,,0.00,WUHU216HW,2013-03-13 14:33:00,
2013-03-13 10:38:00,36.0,28.2,29.76,WNW,293,4.7,4.7,73,0.00,,,0.00,WUHU216HW,2013-03-13 14:38:00,
2013-03-13 10:43:00,36.2,28.4,29.76,West,270,2.9,4.7,73,0.00,,,0.00,WUHU216HW,2013-03-13 14:43:00,
2013-03-13 10:48:00,36.5,28.4,29.76,NW,315,3.4,3.8,72,0.00,,,0.00,WUHU216HW,2013-03-13 14:48:00,
2013-03-13 10:53:00,36.7,28.6,29.76,NNW,338,2.7,3.6,72,0.00,,,0.00,WUHU216HW,2013-03-13 14:53:00,
2013-03-13 10:58:00,36.9,28.4,29.76,NW,315,5.8,8.5,71,0.00,,,0.00,WUHU216HW,2013-03-13 14:58:00,
2013-03-13 11:03:00,36.9,28.4,29.76,West,270,1.6,8.5,71,0.00,,,0.00,WUHU216HW,2013-03-13 15:03:00,
2013-03-13 11:08:00,37.2,28.4,29.76,SSW,203,5.4,8.3,70,0.00,,,0.00,WUHU216HW,2013-03-13 15:08:00,
2013-03-13 11:13:00,37.2,28.0,29.76,NW,315,1.1,8.3,69,0.00,,,0.00,WUHU216HW,2013-03-13 15:13:00,
2013-03-13 11:18:00,37.6,28.4,29.76,WSW,248,8.7,8.7,69,0.00,,,0.00,WUHU216HW,2013-03-13 15:18:00,
2013-03-13 11:23:00,37.6,27.3,29.76,SW,225,4.3,9.2,66,0.00,,,0.00,WUHU216HW,2013-03-13 15:23:00,
2013-03-13 11:28:00,37.6,27.7,29.76,NW,315,4.0,9.2,67,0.00,,,0.00,WUHU216HW,2013-03-13 15:28:00,
2013-03-13 11:33:00,37.8,27.9,29.76,SW,225,3.8,7.4,67,0.00,,,0.00,WUHU216HW,2013-03-13 15:33:00,
2013-03-13 11:38:00,38.0,27.7,29.76,West,270,4.0,7.6,66,0.00,,,0.00,WUHU216HW,2013-03-13 15:38:00,
2013-03-13 11:43:00,38.0,27.7,29.76,NW,315,4.7,7.6,66,0.00,,,0.00,WUHU216HW,2013-03-13 15:43:00,
2013-03-13 11:49:00,38.0,27.4,29.75,WSW,248,5.4,7.4,65,0.00,,,0.00,WUHU216HW,2013-03-13 15:49:00,
2013-03-13 11:54:00,38.1,27.1,29.76,South,180,3.8,7.6,64,0.00,,,0.00,WUHU216HW,2013-03-13 15:54:00,
2013-03-13 11:59:00,38.3,26.9,29.75,WSW,248,7.2,7.6,63,0.00,,,0.00,WUHU216HW,2013-03-13 15:59:00,
2013-03-13 12:04:00,38.5,27.1,29.75,SW,225,4.9,7.2,63,0.00,,,0.00,WUHU216HW,2013-03-13 16:04:00,
2013-03-13 12:09:00,38.7,26.9,29.75,WSW,248,4.0,8.5,62,0.00,,,0.00,WUHU216HW,2013-03-13 16:09:00,
2013-03-13 12:14:00,38.7,26.9,29.75,West,270,4.3,8.5,62,0.00,,,0.00,WUHU216HW,2013-03-13 16:14:00,
2013-03-13 12:19:00,39.0,27.2,29.75,West,270,6.9,8.7,62,0.00,,,0.00,WUHU216HW,2013-03-13 16:19:00,
2013-03-13 12:24:00,39.0,27.2,29.75,WSW,248,3.8,8.7,62,0.00,,,0.00,WUHU216HW,2013-03-13 16:24:00,
2013-03-13 12:29:00,39.2,26.9,29.75,NNW,338,4.5,7.8,61,0.00,,,0.00,WUHU216HW,2013-03-13 16:29:00,
2013-03-13 12:34:00,39.4,27.1,29.75,West,270,6.5,7.8,61,0.00,,,0.00,WUHU216HW,2013-03-13 16:34:00,
2013-03-13 12:39:00,39.8,27.9,29.75,WSW,248,3.4,6.5,62,0.00,,,0.00,WUHU216HW,2013-03-13 16:39:00,
2013-03-13 12:44:00,39.8,27.1,29.74,WNW,293,2.9,7.6,60,0.00,,,0.00,WUHU216HW,2013-03-13 16:44:00,
2013-03-13 12:49:00,40.1,27.4,29.74,WSW,248,6.0,7.6,60,0.00,,,0.00,WUHU216HW,2013-03-13 16:49:00,
2013-03-13 12:54:00,40.1,27.4,29.74,WSW,248,2.5,6.5,60,0.00,,,0.00,WUHU216HW,2013-03-13 16:54:00,
2013-03-13 13:00:00,40.1,26.5,29.74,WSW,248,6.9,8.5,58,0.00,,,0.00,WUHU216HW,2013-03-13 17:00:00,
2013-03-13 13:05:00,40.1,26.1,29.74,NW,315,5.6,8.5,57,0.00,,,0.00,WUHU216HW,2013-03-13 17:05:00,
2013-03-13 13:10:00,40.1,26.5,29.74,WSW,248,4.7,7.8,58,0.00,,,0.00,WUHU216HW,2013-03-13 17:10:00,
2013-03-13 13:15:00,40.1,26.5,29.74,WNW,293,2.5,6.0,58,0.00,,,0.00,WUHU216HW,2013-03-13 17:15:00,
2013-03-13 13:20:00,40.3,26.3,29.74,NW,315,4.3,6.0,57,0.00,,,0.00,WUHU216HW,2013-03-13 17:20:00,
2013-03-13 13:25:00,40.3,26.7,29.73,West,270,4.0,6.3,58,0.00,,,0.00,WUHU216HW,2013-03-13 17:25:00,
2013-03-13 13:30:00,40.8,26.3,29.73,SSE,158,4.5,8.7,56,0.00,,,0.00,WUHU216HW,2013-03-13 17:30:00,
2013-03-13 13:35:00,41.4,26.9,29.72,WSW,248,5.8,8.7,56,0.00,,,0.00,WUHU216HW,2013-03-13 17:35:00,
2013-03-13 13:40:00,41.6,26.2,29.72,West,270,4.0,10.1,54,0.00,,,0.00,WUHU216HW,2013-03-13 17:40:00,
2013-03-13 13:45:00,41.4,25.5,29.72,West,270,4.5,10.1,53,0.00,,,0.00,WUHU216HW,2013-03-13 17:45:00,
2013-03-13 13:50:00,41.4,25.5,29.72,NW,315,4.9,8.7,53,0.00,,,0.00,WUHU216HW,2013-03-13 17:50:00,
2013-03-13 13:55:00,41.4,25.1,29.71,West,270,4.9,11.4,52,0.00,,,0.00,WUHU216HW,2013-03-13 17:55:00,
2013-03-13 14:00:00,41.9,26.0,29.71,WSW,248,8.5,11.4,53,0.00,,,0.00,WUHU216HW,2013-03-13 18:00:00,
2013-03-13 14:05:00,42.6,25.2,29.71,SSW,203,10.3,10.3,50,0.00,,,0.00,WUHU216HW,2013-03-13 18:05:00,
2013-03-13 14:10:00,42.8,25.4,29.71,SSW,203,5.8,10.3,50,0.00,,,0.00,WUHU216HW,2013-03-13 18:10:00,
2013-03-13 14:16:00,43.0,25.1,29.71,SSW,203,2.0,11.2,49,0.00,,,0.00,WUHU216HW,2013-03-13 18:16:00,
2013-03-13 14:21:00,43.0,25.1,29.71,WSW,248,2.5,11.2,49,0.00,,,0.00,WUHU216HW,2013-03-13 18:21:00,
2013-03-13 14:26:00,43.0,24.0,29.71,WSW,248,9.2,9.8,47,0.00,,,0.00,WUHU216HW,2013-03-13 18:26:00,
2013-03-13 14:31:00,42.6,23.7,29.71,SW,225,8.5,9.8,47,0.00,,,0.00,WUHU216HW,2013-03-13 18:31:00,
2013-03-13 14:36:00,42.3,23.4,29.71,SW,225,6.9,8.5,47,0.00,,,0.00,WUHU216HW,2013-03-13 18:36:00,
2013-03-13 14:41:00,42.1,24.2,29.70,SSW,203,5.4,9.4,49,0.00,,,0.00,WUHU216HW,2013-03-13 18:41:00,
2013-03-13 14:46:00,42.3,24.4,29.70,ESE,113,3.1,9.4,49,0.00,,,0.00,WUHU216HW,2013-03-13 18:46:00,
2013-03-13 14:51:00,42.6,24.7,29.70,West,270,6.9,11.6,49,0.00,,,0.00,WUHU216HW,2013-03-13 18:51:00,
2013-03-13 14:57:00,42.8,24.9,29.70,SSW,203,2.9,11.6,49,0.00,,,0.00,WUHU216HW,2013-03-13 18:57:00,
2013-03-13 15:02:00,42.5,24.1,29.70,West,270,10.5,12.3,48,0.00,,,0.00,WUHU216HW,2013-03-13 19:02:00,
2013-03-13 15:07:00,41.7,22.8,29.70,West,270,4.0,13.4,47,0.00,,,0.00,WUHU216HW,2013-03-13 19:07:00,
2013-03-13 15:12:00,41.6,22.8,29.70,West,270,6.9,13.4,47,0.00,,,0.00,WUHU216HW,2013-03-13 19:12:00,
2013-03-13 15:17:00,41.4,23.1,29.70,WSW,248,2.7,12.8,48,0.00,,,0.00,WUHU216HW,2013-03-13 19:17:00,
2013-03-13 15:22:00,41.2,22.9,29.70,SW,225,3.4,12.8,48,0.00,,,0.00,WUHU216HW,2013-03-13 19:22:00,
2013-03-13 15:27:00,41.0,22.7,29.70,West,270,4.7,11.0,48,0.00,,,0.00,WUHU216HW,2013-03-13 19:27:00,
2013-03-13 15:32:00,41.0,23.2,29.70,WNW,293,3.4,8.7,49,0.00,,,0.00,WUHU216HW,2013-03-13 19:32:00,
2013-03-13 15:37:00,41.0,23.2,29.70,WSW,248,5.4,9.8,49,0.00,,,0.00,WUHU216HW,2013-03-13 19:37:00,
2013-03-13 15:43:00,40.8,23.0,29.70,West,270,6.7,9.8,49,0.00,,,0.00,WUHU216HW,2013-03-13 19:43:00,
2013-03-13 15:48:00,41.0,23.7,29.70,WSW,248,4.0,9.2,50,0.00,,,0.00,WUHU216HW,2013-03-13 19:48:00,
2013-03-13 15:53:00,41.6,24.3,29.70,WNW,293,6.0,7.6,50,0.00,,,0.00,WUHU216HW,2013-03-13 19:53:00,
2013-03-13 15:58:00,41.9,24.6,29.69,West,270,4.7,7.6,50,0.00,,,0.00,WUHU216HW,2013-03-13 19:58:00,
2013-03-13 16:03:00,42.3,24.9,29.69,West,270,7.6,7.6,50,0.00,,,0.00,WUHU216HW,2013-03-13 20:03:00,
2013-03-13 16:08:00,42.3,23.9,29.69,South,180,4.9,9.8,48,0.00,,,0.00,WUHU216HW,2013-03-13 20:08:00,
2013-03-13 16:13:00,42.3,23.9,29.70,WSW,248,6.3,13.4,48,0.00,,,0.00,WUHU216HW,2013-03-13 20:13:00,
2013-03-13 16:18:00,42.1,23.7,29.70,West,270,9.8,13.4,48,0.00,,,0.00,WUHU216HW,2013-03-13 20:18:00,
2013-03-13 16:23:00,41.6,22.8,29.70,NNE,23,5.4,11.0,47,0.00,,,0.00,WUHU216HW,2013-03-13 20:23:00,
2013-03-13 16:28:00,41.0,22.2,29.70,West,270,6.3,11.2,47,0.00,,,0.00,WUHU216HW,2013-03-13 20:28:00,
2013-03-13 16:33:00,40.7,22.4,29.70,West,270,4.3,12.5,48,0.00,,,0.00,WUHU216HW,2013-03-13 20:33:00,
2013-03-13 16:38:00,40.5,23.3,29.71,SW,225,11.4,12.8,50,0.00,,,0.00,WUHU216HW,2013-03-13 20:38:00,
2013-03-13 16:43:00,39.9,23.2,29.71,West,270,11.4,12.8,51,0.00,,,0.00,WUHU216HW,2013-03-13 20:43:00,
2013-03-13 16:48:00,39.6,23.9,29.71,SSE,158,6.3,12.1,53,0.00,,,0.00,WUHU216HW,2013-03-13 20:48:00,
2013-03-13 16:53:00,39.4,24.1,29.71,WSW,248,6.3,11.4,54,0.00,,,0.00,WUHU216HW,2013-03-13 20:53:00,
2013-03-13 16:58:00,39.4,25.0,29.71,SW,225,8.5,11.4,56,0.00,,,0.00,WUHU216HW,2013-03-13 20:58:00,
2013-03-13 17:03:00,39.6,25.6,29.71,WSW,248,2.9,8.5,57,0.00,,,0.00,WUHU216HW,2013-03-13 21:03:00,
2013-03-13 17:09:00,39.9,25.9,29.71,WSW,248,4.7,7.6,57,0.00,,,0.00,WUHU216HW,2013-03-13 21:09:00,
2013-03-13 17:14:00,39.4,25.0,29.71,WSW,248,6.7,8.9,56,0.00,,,0.00,WUHU216HW,2013-03-13 21:14:00,
2013-03-13 17:19:00,39.0,25.1,29.72,WNW,293,4.7,12.1,57,0.00,,,0.00,WUHU216HW,2013-03-13 21:19:00,
2013-03-13 17:24:00,38.9,25.8,29.72,WNW,293,6.0,12.1,59,0.00,,,0.00,WUHU216HW,2013-03-13 21:24:00,
2013-03-13 17:29:00,38.1,25.9,29.72,SSW,203,9.6,12.8,61,0.00,,,0.00,WUHU216HW,2013-03-13 21:29:00,
2013-03-13 17:34:00,37.6,26.2,29.73,WSW,248,8.9,12.8,63,0.00,,,0.00,WUHU216HW,2013-03-13 21:34:00,
2013-03-13 17:39:00,37.4,26.0,29.73,WSW,248,10.3,12.1,63,0.00,,,0.00,WUHU216HW,2013-03-13 21:39:00,
2013-03-13 17:44:00,37.1,26.5,29.73,West,270,4.0,11.4,65,0.00,,,0.00,WUHU216HW,2013-03-13 21:44:00,
2013-03-13 17:49:00,36.7,26.1,29.73,SW,225,3.8,11.4,65,0.00,,,0.00,WUHU216HW,2013-03-13 21:49:00,
2013-03-13 17:54:00,36.5,26.3,29.73,SSW,203,3.1,9.2,66,0.00,,,0.00,WUHU216HW,2013-03-13 21:54:00,
2013-03-13 17:59:00,36.5,26.3,29.73,WNW,293,4.3,9.2,66,0.00,,,0.00,WUHU216HW,2013-03-13 21:59:00,
2013-03-13 18:04:00,36.9,26.3,29.73,West,270,2.7,8.5,65,0.00,,,0.00,WUHU216HW,2013-03-13 22:04:00,
2013-03-13 18:09:00,37.4,26.4,29.73,NW,315,2.7,8.5,64,0.00,,,0.00,WUHU216HW,2013-03-13 22:09:00,
2013-03-13 18:14:00,37.6,26.2,29.73,WSW,248,5.4,8.5,63,0.00,,,0.00,WUHU216HW,2013-03-13 22:14:00,
2013-03-13 18:19:00,37.8,26.4,29.73,West,270,3.4,7.8,63,0.00,,,0.00,WUHU216HW,2013-03-13 22:19:00,
2013-03-13 18:24:00,37.8,26.4,29.73,West,270,6.5,8.7,63,0.00,,,0.00,WUHU216HW,2013-03-13 22:24:00,
2013-03-13 18:29:00,37.8,26.4,29.73,West,270,1.6,8.7,63,0.00,,,0.00,WUHU216HW,2013-03-13 22:29:00,
2013-03-13 18:35:00,37.8,26.4,29.73,WNW,293,5.1,6.5,63,0.00,,,0.00,WUHU216HW,2013-03-13 22:35:00,
2013-03-13 18:40:00,37.4,26.0,29.73,WSW,248,1.6,6.9,63,0.00,,,0.00,WUHU216HW,2013-03-13 22:40:00,
2013-03-13 18:45:00,37.4,26.0,29.73,West,270,2.5,6.9,63,0.00,,,0.00,WUHU216HW,2013-03-13 22:45:00,
2013-03-13 18:50:00,37.2,25.8,29.73,SW,225,1.1,5.4,63,0.00,,,0.00,WUHU216HW,2013-03-13 22:50:00,
2013-03-13 18:55:00,37.2,25.8,29.74,South,180,2.2,5.4,63,0.00,,,0.00,WUHU216HW,2013-03-13 22:55:00,
2013-03-13 19:00:00,37.1,25.7,29.73,SW,225,2.9,4.5,63,0.00,,,0.00,WUHU216HW,2013-03-13 23:00:00,
2013-03-13 19:05:00,36.9,25.5,29.73,WSW,248,2.5,4.7,63,0.00,,,0.00,WUHU216HW,2013-03-13 23:05:00,
2013-03-13 19:10:00,36.7,25.4,29.73,WSW,248,0.4,4.7,63,0.00,,,0.00,WUHU216HW,2013-03-13 23:10:00,
2013-03-13 19:15:00,36.5,25.2,29.74,WSW,248,1.8,4.0,63,0.00,,,0.00,WUHU216HW,2013-03-13 23:15:00,
2013-03-13 19:20:00,36.5,25.2,29.74,West,270,1.8,4.0,63,0.00,,,0.00,WUHU216HW,2013-03-13 23:20:00,
2013-03-13 19:25:00,36.3,25.0,29.74,West,270,0.7,4.0,63,0.00,,,0.00,WUHU216HW,2013-03-13 23:25:00,
2013-03-13 19:30:00,36.3,25.0,29.74,SW,225,1.1,4.0,63,0.00,,,0.00,WUHU216HW,2013-03-13 23:30:00,
2013-03-13 19:36:00,36.2,24.9,29.74,WNW,293,2.5,4.0,63,0.00,,,0.00,WUHU216HW,2013-03-13 23:36:00,
2013-03-13 19:41:00,36.3,25.0,29.74,WSW,248,2.5,2.5,63,0.00,,,0.00,WUHU216HW,2013-03-13 23:41:00,
2013-03-13 19:46:00,36.2,24.9,29.74,West,270,1.3,2.7,63,0.00,,,0.00,WUHU216HW,2013-03-13 23:46:00,
2013-03-13 19:51:00,36.2,24.9,29.74,West,270,1.1,4.5,63,0.00,,,0.00,WUHU216HW,2013-03-13 23:51:00,
2013-03-13 19:56:00,36.2,24.9,29.74,WNW,293,1.3,4.5,63,0.00,,,0.00,WUHU216HW,2013-03-13 23:56:00,
2013-03-13 20:01:00,36.2,24.9,29.75,West,270,4.5,5.6,63,0.00,,,0.00,WUHU216HW,2013-03-14 00:01:00,
2013-03-13 20:06:00,36.0,24.7,29.75,West,270,1.8,6.3,63,0.00,,,0.00,WUHU216HW,2013-03-14 00:06:00,
2013-03-13 20:12:00,35.8,24.5,29.74,NW,315,4.0,4.7,63,0.00,,,0.00,WUHU216HW,2013-03-14 00:12:00,
2013-03-13 20:17:00,35.8,24.5,29.75,West,270,2.9,5.1,63,0.00,,,0.00,WUHU216HW,2013-03-14 00:17:00,
2013-03-13 20:22:00,35.8,24.5,29.75,West,270,4.5,5.1,63,0.00,,,0.00,WUHU216HW,2013-03-14 00:22:00,
2013-03-13 20:27:00,35.8,24.5,29.75,NE,45,1.8,4.9,63,0.00,,,0.00,WUHU216HW,2013-03-14 00:27:00,
2013-03-13 20:32:00,35.6,23.5,29.75,SW,225,2.5,6.0,61,0.00,,,0.00,WUHU216HW,2013-03-14 00:32:00,
2013-03-13 20:37:00,35.4,23.3,29.75,WSW,248,1.1,6.0,61,0.00,,,0.00,WUHU216HW,2013-03-14 00:37:00,
2013-03-13 20:42:00,35.4,23.3,29.75,WNW,293,0.7,4.7,61,0.00,,,0.00,WUHU216HW,2013-03-14 00:42:00,
2013-03-13 20:47:00,35.3,23.2,29.75,West,270,3.4,5.8,61,0.00,,,0.00,WUHU216HW,2013-03-14 00:47:00,
2013-03-13 20:52:00,35.1,23.1,29.75,West,270,4.5,6.5,61,0.00,,,0.00,WUHU216HW,2013-03-14 00:52:00,
2013-03-13 20:57:00,35.1,22.7,29.75,SW,225,3.6,8.7,60,0.00,,,0.00,WUHU216HW,2013-03-14 00:57:00,
2013-03-13 21:02:00,35.1,22.7,29.75,West,270,2.5,8.7,60,0.00,,,0.00,WUHU216HW,2013-03-14 01:02:00,
2013-03-13 21:07:00,34.9,22.5,29.75,WSW,248,4.7,6.5,60,0.00,,,0.00,WUHU216HW,2013-03-14 01:07:00,
2013-03-13 21:12:00,34.9,22.5,29.75,WSW,248,5.4,6.5,60,0.00,,,0.00,WUHU216HW,2013-03-14 01:12:00,
2013-03-13 21:18:00,34.7,22.3,29.75,WNW,293,3.4,6.9,60,0.00,,,0.00,WUHU216HW,2013-03-14 01:18:00,
2013-03-13 21:23:00,34.7,22.3,29.75,WNW,293,2.9,8.1,60,0.00,,,0.00,WUHU216HW,2013-03-14 01:23:00,
2013-03-13 21:28:00,34.7,21.9,29.75,West,270,6.0,8.9,59,0.00,,,0.00,WUHU216HW,2013-03-14 01:28:00,
2013-03-13 21:33:00,34.7,21.9,29.75,WSW,248,3.8,8.9,59,0.00,,,0.00,WUHU216HW,2013-03-14 01:33:00,
2013-03-13 21:38:00,34.5,22.1,29.75,West,270,4.3,8.9,60,0.00,,,0.00,WUHU216HW,2013-03-14 01:38:00,
2013-03-13 21:43:00,34.4,22.0,29.76,WSW,248,3.8,6.9,60,0.00,,,0.00,WUHU216HW,2013-03-14 01:43:00,
2013-03-13 21:48:00,34.4,22.0,29.76,SSW,203,3.1,11.4,60,0.00,,,0.00,WUHU216HW,2013-03-14 01:48:00,
2013-03-13 21:53:00,34.2,21.8,29.76,SSW,203,6.7,11.4,60,0.00,,,0.00,WUHU216HW,2013-03-14 01:53:00,
2013-03-13 21:58:00,34.2,21.8,29.76,WSW,248,4.9,11.2,60,0.00,,,0.00,WUHU216HW,2013-03-14 01:58:00,
2013-03-13 22:03:00,33.8,21.8,29.76,West,270,6.9,9.2,61,0.00,,,0.00,WUHU216HW,2013-03-14 02:03:00,
2013-03-13 22:08:00,33.6,21.6,29.76,NW,315,2.2,12.1,61,0.00,,,0.00,WUHU216HW,2013-03-14 02:08:00,
2013-03-13 22:13:00,33.3,21.7,29.77,NW,315,4.3,12.1,62,0.00,,,0.00,WUHU216HW,2013-03-14 02:13:00,
2013-03-13 22:18:00,33.3,21.7,29.77,ESE,113,5.8,11.4,62,0.00,,,0.00,WUHU216HW,2013-03-14 02:18:00,
2013-03-13 22:23:00,32.9,21.7,29.77,South,180,6.3,11.6,63,0.00,,,0.00,WUHU216HW,2013-03-14 02:23:00,
2013-03-13 22:28:00,32.9,21.7,29.77,West,270,4.9,11.6,63,0.00,,,0.00,WUHU216HW,2013-03-14 02:28:00,
2013-03-13 22:33:00,32.7,21.9,29.77,SW,225,6.3,9.2,64,0.00,,,0.00,WUHU216HW,2013-03-14 02:33:00,
2013-03-13 22:38:00,32.6,22.2,29.77,WSW,248,7.8,12.3,65,0.00,,,0.00,WUHU216HW,2013-03-14 02:38:00,
2013-03-13 22:43:00,32.4,22.0,29.78,West,270,9.8,12.3,65,0.00,,,0.00,WUHU216HW,2013-03-14 02:43:00,
2013-03-13 22:48:00,32.2,22.2,29.77,NNW,338,4.7,9.8,66,0.00,,,0.00,WUHU216HW,2013-03-14 02:48:00,
2013-03-13 22:53:00,32.0,22.0,29.77,SW,225,2.9,9.8,66,0.00,,,0.00,WUHU216HW,2013-03-14 02:53:00,
2013-03-13 22:59:00,31.8,21.8,29.77,West,270,4.7,8.9,66,0.00,,,0.00,WUHU216HW,2013-03-14 02:59:00,
2013-03-13 23:04:00,31.7,22.1,29.77,WSW,248,5.4,9.4,67,0.00,,,0.00,WUHU216HW,2013-03-14 03:04:00,
2013-03-13 23:09:00,31.7,22.1,29.77,WSW,248,8.7,9.6,67,0.00,,,0.00,WUHU216HW,2013-03-14 03:09:00,
2013-03-13 23:14:00,31.5,21.9,29.77,WNW,293,4.7,10.7,67,0.00,,,0.00,WUHU216HW,2013-03-14 03:14:00,
2013-03-13 23:19:00,31.5,22.2,29.77,SW,225,5.6,10.7,68,0.00,,,0.00,WUHU216HW,2013-03-14 03:19:00,
2013-03-13 23:24:00,31.5,22.2,29.77,West,270,5.4,7.6,68,0.00,,,0.00,WUHU216HW,2013-03-14 03:24:00,
2013-03-13 23:29:00,31.3,22.0,29.77,WSW,248,5.4,8.1,68,0.00,,,0.00,WUHU216HW,2013-03-14 03:29:00,
2013-03-13 23:34:00,31.3,22.4,29.77,SSW,203,8.1,11.0,69,0.00,,,0.00,WUHU216HW,2013-03-14 03:34:00,
2013-03-13 23:39:00,31.1,22.2,29.77,West,270,5.8,11.0,69,0.00,,,0.00,WUHU216HW,2013-03-14 03:39:00,
2013-03-13 23:44:00,31.1,22.2,29.77,NW,315,5.1,9.2,69,0.00,,,0.00,WUHU216HW,2013-03-14 03:44:00,
2013-03-13 23:49:00,31.1,22.2,29.77,WSW,248,3.1,6.9,69,0.00,,,0.00,WUHU216HW,2013-03-14 03:49:00,
2013-03-13 23:54:00,31.1,22.2,29.77,West,270,5.6,6.9,69,0.00,,,0.00,WUHU216HW,2013-03-14 03:54:00,
2013-03-13 23:59:00,31.1,22.2,29.76,SW,225,3.8,9.2,69,0.00,,,0.00,WUHU216HW,2013-03-14 03:59:00,